Time;durP1;ratioP1;P1;durP2;ratioP2;P2;SDS_P1;SDS_P2;PMS_P1;PMS_P2;Temp;Humidity;BMP_temperature;BMP_pressure;BME280_temperature;BME280_humidity;BME280_pressure;Samples;Min_cycle;Max_cycle;Signal;HPM_P1;HPM_P2
2023/05/19 00:01:20;;;;;;;0.20;0.20;;;;;;;21.30;43.62;102167.00;5115299;27;20166;-44
2023/05/19 00:03:56;;;;;;;0.20;0.20;;;;;;;21.29;43.55;102157.84;5115394;28;20047;-42
2023/05/19 00:06:23;;;;;;;0.20;0.20;;;;;;;21.32;43.51;102163.97;5096880;28;20075;-43
2023/05/19 00:08:55;;;;;;;0.20;0.20;;;;;;;21.32;43.74;102169.53;5097627;28;20047;-43
2023/05/19 00:11:21;;;;;;;0.20;0.20;;;;;;;21.30;43.54;102161.44;5115250;27;20328;-43
2023/05/19 00:13:48;;;;;;;0.20;0.20;;;;;;;21.32;43.66;102166.75;5114783;28;20475;-42
2023/05/19 00:16:14;;;;;;;0.20;0.20;;;;;;;21.32;43.52;102167.59;5115357;28;20046;-43
2023/05/19 00:18:40;;;;;;;0.20;0.20;;;;;;;21.30;43.63;102167.00;5115409;28;20043;-45
2023/05/19 00:21:06;;;;;;;0.20;0.20;;;;;;;21.30;43.55;102161.44;5122797;27;20046;-43
2023/05/19 00:23:32;;;;;;;0.15;0.15;;;;;;;21.28;43.64;102164.47;5115547;27;20487;-42
2023/05/19 00:25:57;;;;;;;0.20;0.20;;;;;;;21.29;43.57;102163.41;5115173;27;20428;-42
2023/05/19 00:28:23;;;;;;;0.20;0.20;;;;;;;21.30;43.40;102165.06;5135443;27;20047;-43
2023/05/19 00:30:49;;;;;;;0.20;0.20;;;;;;;21.31;43.51;102163.13;5122968;27;20045;-44
2023/05/19 00:33:15;;;;;;;0.20;0.20;;;;;;;21.29;43.57;102157.84;5114776;28;20039;-42
2023/05/19 00:35:41;;;;;;;0.20;0.20;;;;;;;21.29;43.57;102163.41;5114888;28;20051;-44
2023/05/19 00:38:06;;;;;;;0.20;0.20;;;;;;;21.30;43.41;102162.28;5114759;28;20043;-44
2023/05/19 00:40:34;;;;;;;0.20;0.20;;;;;;;21.30;43.67;102159.50;5115080;27;20047;-44
2023/05/19 00:43:00;;;;;;;0.10;0.10;;;;;;;21.33;43.60;102163.72;5079694;28;20491;-44
2023/05/19 00:45:26;;;;;;;0.20;0.20;;;;;;;21.31;43.60;102160.34;5122762;27;20047;-43
2023/05/19 00:47:52;;;;;;;0.20;0.20;;;;;;;21.29;43.43;102154.25;5119916;27;20494;-44
2023/05/19 00:50:18;;;;;;;0.20;0.20;;;;;;;21.31;43.36;102163.13;5139206;27;20261;-44
2023/05/19 00:52:43;;;;;;;0.20;0.20;;;;;;;21.33;43.49;102155.41;5139127;27;20525;-42
2023/05/19 00:55:09;;;;;;;0.10;0.10;;;;;;;21.29;43.41;102148.72;5139150;27;20562;-44
2023/05/19 00:57:35;;;;;;;0.20;0.20;;;;;;;21.32;43.61;102156.50;5138930;27;20050;-43
2023/05/19 01:00:04;;;;;;;0.20;0.20;;;;;;;21.29;43.55;102160.63;5138623;27;20063;-42
2023/05/19 01:02:31;;;;;;;0.20;0.20;;;;;;;21.33;43.61;102157.34;5121002;27;20105;-43
2023/05/19 01:04:57;;;;;;;0.10;0.10;;;;;;;21.33;43.54;102160.09;5138867;27;20047;-43
2023/05/19 01:07:24;;;;;;;0.20;0.20;;;;;;;21.33;43.55;102158.19;5137749;27;20503;-42
2023/05/19 01:09:50;;;;;;;0.20;0.20;;;;;;;21.33;43.56;102152.66;5137910;27;20070;-42
2023/05/19 01:12:16;;;;;;;0.20;0.20;;;;;;;21.30;43.39;102145.66;5138629;27;20083;-43
2023/05/19 01:14:42;;;;;;;0.20;0.20;;;;;;;21.31;43.44;102154.81;5138340;27;20432;-43
2023/05/19 01:17:24;;;;;;;0.20;0.20;;;;;;;21.32;43.49;102145.41;5137803;27;20515;-43
2023/05/19 01:19:56;;;;;;;0.20;0.20;;;;;;;21.35;43.45;102153.22;5137064;27;20534;-44
2023/05/19 01:22:41;;;;;;;0.20;0.20;;;;;;;21.32;43.43;102150.97;5129371;27;20106;-43
2023/05/19 01:25:29;;;;;;;0.20;0.20;;;;;;;21.32;43.51;102150.13;5140616;27;20038;-43
2023/05/19 01:28:35;;;;;;;0.20;0.20;;;;;;;21.30;43.62;102148.44;5156279;27;20497;-43
2023/05/19 01:31:01;;;;;;;0.20;0.20;;;;;;;21.30;43.70;102151.19;5100432;28;20476;-44
2023/05/19 01:33:29;;;;;;;0.20;0.20;;;;;;;21.32;43.47;102150.97;5117437;28;20503;-43
2023/05/19 01:35:55;;;;;;;0.20;0.20;;;;;;;21.29;43.45;102141.22;5116987;28;20071;-44
2023/05/19 01:38:21;;;;;;;0.20;0.20;;;;;;;21.30;43.41;102137.34;5116358;28;20043;-42
2023/05/19 01:40:48;;;;;;;0.20;0.20;;;;;;;21.32;43.57;102137.09;5129221;27;20055;-42
2023/05/19 01:43:16;;;;;;;0.10;0.10;;;;;;;21.33;43.35;102141.56;5137986;27;20047;-42
2023/05/19 01:45:42;;;;;;;;;;;;;;;21.33;43.51;102147.09;5119412;27;20928;-44
2023/05/19 01:48:08;;;;;;;0.20;0.20;;;;;;;21.32;43.38;102155.66;5137085;27;20284;-43
2023/05/19 01:50:36;;;;;;;;;;;;;;;21.32;43.50;102148.19;5126818;27;20051;-45
2023/05/19 01:53:02;;;;;;;0.10;0.10;;;;;;;21.33;43.52;102151.78;5098685;28;20493;-43
2023/05/19 01:55:28;;;;;;;0.20;0.20;;;;;;;21.30;43.46;102145.66;5116982;28;20067;-44
2023/05/19 01:58:33;;;;;;;0.20;0.20;;;;;;;21.30;43.45;102156.75;5116769;27;20047;-45
2023/05/19 02:01:07;;;;;;;0.17;0.17;;;;;;;21.32;43.40;102155.66;5089718;28;20090;-43
2023/05/19 02:03:48;;;;;;;0.20;0.20;;;;;;;21.32;43.44;102158.44;5117454;28;20044;-43
2023/05/19 02:06:42;;;;;;;0.20;0.20;;;;;;;21.35;43.43;102157.91;5116694;27;20055;-42
2023/05/19 02:09:14;;;;;;;0.20;0.20;;;;;;;21.32;43.42;102152.91;5087198;28;20051;-43
2023/05/19 02:12:02;;;;;;;0.20;0.20;;;;;;;21.33;43.49;102152.66;5116460;27;20113;-43
2023/05/19 02:14:33;;;;;;;0.20;0.20;;;;;;;21.31;43.35;102152.03;5098951;28;20055;-43
2023/05/19 02:16:59;;;;;;;0.15;0.15;;;;;;;21.32;43.34;102155.66;5098704;28;20062;-42
2023/05/19 02:19:27;;;;;;;0.20;0.20;;;;;;;21.33;43.55;102151.78;5099446;27;20043;-42
2023/05/19 02:21:53;;;;;;;;;;;;;;;21.32;43.36;102150.13;5133827;27;20114;-44
2023/05/19 02:24:21;;;;;;;0.20;0.20;;;;;;;21.33;43.55;102146.25;5139286;27;20134;-43
2023/05/19 02:26:48;;;;;;;0.10;0.10;;;;;;;21.33;43.49;102141.56;5158017;27;20563;-43
2023/05/19 02:29:13;;;;;;;0.20;0.20;;;;;;;21.32;43.30;102148.19;5157685;27;20054;-42
2023/05/19 02:31:39;;;;;;;0.20;0.20;;;;;;;21.32;43.35;102150.97;5131012;27;20433;-43
2023/05/19 02:34:05;;;;;;;0.10;0.10;;;;;;;21.34;43.40;102146.00;5136997;27;20047;-43
2023/05/19 02:36:34;;;;;;;0.10;0.10;;;;;;;21.34;43.33;102143.22;5136841;27;20563;-44
2023/05/19 02:39:00;;;;;;;0.20;0.20;;;;;;;21.34;43.37;102134.09;5136753;27;20039;-44
2023/05/19 02:41:27;;;;;;;0.20;0.20;;;;;;;21.34;43.51;102139.63;5118615;27;20067;-44
2023/05/19 02:43:52;;;;;;;0.20;0.20;;;;;;;21.33;43.45;102133.25;5115902;28;20058;-42
2023/05/19 02:46:18;;;;;;;0.20;0.20;;;;;;;21.32;43.50;102134.34;5122996;27;20311;-42
2023/05/19 02:48:44;;;;;;;0.20;0.20;;;;;;;21.31;43.39;102135.41;5152281;27;20411;-44
2023/05/19 02:51:09;;;;;;;0.20;0.20;;;;;;;21.30;43.45;102129.03;5136620;27;20147;-46
2023/05/19 02:53:35;;;;;;;0.10;0.10;;;;;;;21.32;43.47;102126.03;5137267;27;20056;-44
2023/05/19 02:56:01;;;;;;;0.20;0.20;;;;;;;21.32;43.50;102117.72;5137487;27;20228;-43
2023/05/19 02:58:26;;;;;;;0.20;0.20;;;;;;;21.33;43.29;102127.72;5136831;27;20054;-43
2023/05/19 03:00:52;;;;;;;0.20;0.20;;;;;;;21.34;43.29;102126.59;5136226;27;20050;-46
2023/05/19 03:03:18;;;;;;;0.20;0.20;;;;;;;21.35;43.40;102125.50;5136362;27;20057;-45
2023/05/19 03:05:44;;;;;;;0.20;0.20;;;;;;;21.33;43.34;102126.84;5118287;27;20459;-44
2023/05/19 03:08:10;;;;;;;0.20;0.20;;;;;;;21.33;43.30;102137.94;5136458;27;20658;-44
2023/05/19 03:10:36;;;;;;;0.20;0.20;;;;;;;21.34;43.37;102123.84;5135845;27;20053;-44
2023/05/19 03:13:01;;;;;;;0.10;0.10;;;;;;;21.34;43.38;102134.91;5136580;27;20478;-42
2023/05/19 03:15:27;;;;;;;0.20;0.20;;;;;;;21.33;43.32;102136.03;5136632;27;20042;-44
2023/05/19 03:17:53;;;;;;;0.20;0.20;;;;;;;21.37;43.33;102136.31;5136693;27;20043;-42
2023/05/19 03:20:18;;;;;;;0.20;0.20;;;;;;;21.35;43.35;102141.28;5135369;27;20062;-43
2023/05/19 03:22:44;;;;;;;0.20;0.20;;;;;;;21.34;43.26;102140.47;5136840;27;20315;-44
2023/05/19 03:25:10;;;;;;;0.20;0.20;;;;;;;21.33;43.29;102137.94;5136625;27;20524;-43
2023/05/19 03:27:35;;;;;;;0.20;0.20;;;;;;;21.34;43.28;102134.91;5136991;27;20137;-45
2023/05/19 03:30:01;;;;;;;0.20;0.20;;;;;;;21.34;43.17;102136.84;5136454;27;20055;-44
2023/05/19 03:32:31;;;;;;;0.20;0.20;;;;;;;21.32;43.36;102137.09;5135373;27;20055;-44
2023/05/19 03:34:57;;;;;;;0.20;0.20;;;;;;;21.33;43.39;102129.63;5136313;27;20051;-43
2023/05/19 03:37:23;;;;;;;0.20;0.20;;;;;;;21.32;43.29;102127.97;5136222;27;20128;-43
2023/05/19 03:39:49;;;;;;;0.13;0.13;;;;;;;21.33;43.42;102127.72;5131796;27;20533;-44
2023/05/19 03:42:14;;;;;;;0.10;0.10;;;;;;;21.35;43.47;102132.97;5115241;28;20530;-43
2023/05/19 03:44:40;;;;;;;0.10;0.10;;;;;;;21.34;43.35;102132.16;5115181;28;20108;-45
2023/05/19 03:47:06;;;;;;;0.20;0.20;;;;;;;21.34;43.25;102131.31;5115528;28;20722;-43
2023/05/19 03:49:31;;;;;;;0.20;0.20;;;;;;;21.34;43.28;102129.38;5115295;27;20058;-44
2023/05/19 03:51:57;;;;;;;0.20;0.20;;;;;;;21.36;43.44;102129.09;5132515;27;20042;-45
2023/05/19 03:54:23;;;;;;;0.20;0.20;;;;;;;21.34;43.41;102126.59;5135986;27;20213;-42
2023/05/19 03:56:49;;;;;;;0.20;0.20;;;;;;;21.37;43.28;102130.75;5136140;27;20562;-45
2023/05/19 03:59:15;;;;;;;0.20;0.20;;;;;;;21.36;43.34;102132.69;5136077;27;20042;-44
2023/05/19 04:01:40;;;;;;;0.20;0.20;;;;;;;21.36;43.30;102134.63;5115003;27;20595;-43
2023/05/19 04:04:06;;;;;;;0.20;0.20;;;;;;;21.34;43.22;102129.38;5114256;28;20138;-46
2023/05/19 04:06:32;;;;;;;0.20;0.20;;;;;;;21.35;43.38;102127.44;5114129;27;20047;-42
2023/05/19 04:08:58;;;;;;;0.20;0.20;;;;;;;21.35;43.23;102131.03;5114816;28;20047;-43
2023/05/19 04:11:24;;;;;;;0.10;0.10;;;;;;;21.35;43.28;102138.53;5095895;28;20058;-43
2023/05/19 04:13:50;;;;;;;0.20;0.20;;;;;;;21.34;43.34;102129.38;5114468;28;20524;-43
2023/05/19 04:16:16;;;;;;;0.20;0.20;;;;;;;21.35;43.40;102133.81;5095883;28;20051;-43
2023/05/19 04:18:44;;;;;;;0.20;0.20;;;;;;;21.34;43.31;102143.22;5118227;27;20630;-43
2023/05/19 04:21:09;;;;;;;0.20;0.20;;;;;;;21.35;43.25;102127.44;5120794;27;20051;-43
2023/05/19 04:23:35;;;;;;;0.20;0.20;;;;;;;21.34;43.37;102126.59;5117627;27;20047;-44
2023/05/19 04:26:02;;;;;;;0.20;0.20;;;;;;;21.36;43.18;102129.09;5117937;28;20051;-42
2023/05/19 04:28:28;;;;;;;0.20;0.20;;;;;;;21.36;43.40;102135.47;5118023;28;20430;-46
2023/05/19 04:30:55;;;;;;;0.10;0.10;;;;;;;21.34;43.34;102137.69;5131488;27;20089;-43
2023/05/19 04:33:20;;;;;;;0.20;0.20;;;;;;;21.35;43.35;102135.75;5138181;27;20047;-43
2023/05/19 04:35:46;;;;;;;0.20;0.20;;;;;;;21.36;43.38;102134.63;5137827;27;20049;-43
2023/05/19 04:38:12;;;;;;;0.20;0.20;;;;;;;21.36;43.30;102129.09;5138125;27;20047;-43
2023/05/19 04:40:39;;;;;;;0.20;0.20;;;;;;;21.35;43.34;102136.56;5138530;27;20050;-43
2023/05/19 04:43:06;;;;;;;0.20;0.20;;;;;;;21.35;43.34;102131.03;5138883;27;20100;-44
2023/05/19 04:45:31;;;;;;;0.10;0.10;;;;;;;21.35;43.35;102127.44;5138645;27;20100;-46
2023/05/19 04:47:58;;;;;;;0.20;0.20;;;;;;;21.35;43.38;102135.75;5138665;27;20495;-43
2023/05/19 04:50:24;;;;;;;0.20;0.20;;;;;;;21.35;43.23;102139.34;5120033;27;20043;-44
2023/05/19 04:52:49;;;;;;;0.20;0.20;;;;;;;21.35;43.23;102141.28;5138721;27;20057;-45
2023/05/19 04:55:15;;;;;;;0.20;0.20;;;;;;;21.35;43.26;102131.03;5138662;27;20068;-43
2023/05/19 04:57:41;;;;;;;0.13;0.13;;;;;;;21.35;43.26;102133.81;5138451;27;20348;-45
2023/05/19 05:00:11;;;;;;;0.20;0.20;;;;;;;21.37;43.22;102131.59;5119927;27;20776;-43
2023/05/19 05:02:36;;;;;;;0.20;0.20;;;;;;;21.37;43.48;102139.91;5139089;27;20047;-43
2023/05/19 05:05:03;;;;;;;0.20;0.20;;;;;;;21.35;43.31;102135.75;5138608;27;20095;-45
2023/05/19 05:07:28;;;;;;;0.20;0.20;;;;;;;21.36;43.16;102142.94;5137785;27;20047;-44
2023/05/19 05:09:57;;;;;;;0.20;0.20;;;;;;;21.35;43.26;102144.06;5137773;27;20046;-45
2023/05/19 05:12:23;;;;;;;0.20;0.20;;;;;;;21.37;43.20;102133.53;5138755;27;20096;-43
2023/05/19 05:14:49;;;;;;;0.20;0.20;;;;;;;21.37;43.19;102142.69;5138531;27;20298;-43
2023/05/19 05:17:15;;;;;;;0.17;0.17;;;;;;;21.35;43.37;102142.13;5138394;27;20061;-44
2023/05/19 05:19:41;;;;;;;0.20;0.20;;;;;;;21.39;43.18;102142.44;5134982;27;20047;-44
2023/05/19 05:22:06;;;;;;;0.20;0.20;;;;;;;21.37;43.32;102144.63;5099384;28;20096;-46
2023/05/19 05:24:32;;;;;;;0.20;0.20;;;;;;;21.37;43.39;102136.31;5099044;28;20562;-43
2023/05/19 05:26:58;;;;;;;0.10;0.10;;;;;;;21.35;43.25;102136.56;5117754;28;20129;-42
2023/05/19 05:29:24;;;;;;;0.20;0.20;;;;;;;21.37;43.34;102136.31;5116815;27;20047;-44
2023/05/19 05:31:50;;;;;;;0.20;0.20;;;;;;;21.35;43.38;102132.97;5098372;27;20058;-42
2023/05/19 05:34:16;;;;;;;0.20;0.20;;;;;;;21.37;43.36;102130.75;5117439;28;20047;-44
2023/05/19 05:36:41;;;;;;;0.10;0.10;;;;;;;21.38;43.20;102135.22;5132561;27;20535;-42
2023/05/19 05:39:07;;;;;;;0.10;0.10;;;;;;;21.38;43.26;102135.22;5138021;27;20054;-45
2023/05/19 05:41:34;;;;;;;0.20;0.20;;;;;;;21.36;43.42;102135.47;5118442;27;20499;-44
2023/05/19 05:44:00;;;;;;;0.20;0.20;;;;;;;21.36;43.36;102134.63;5117719;27;20042;-46
2023/05/19 05:46:26;;;;;;;0.15;0.15;;;;;;;21.37;43.15;102128.00;5098605;28;20092;-44
2023/05/19 05:48:52;;;;;;;0.13;0.13;;;;;;;21.37;43.27;102133.53;5117241;28;20289;-43
2023/05/19 05:51:22;;;;;;;0.20;0.20;;;;;;;21.36;43.20;102127.16;5116769;27;20182;-44
2023/05/19 05:53:52;;;;;;;0.20;0.20;;;;;;;21.36;43.33;102134.63;5120473;27;20494;-43
2023/05/19 05:56:18;;;;;;;0.20;0.20;;;;;;;21.35;43.35;102132.97;5136306;27;20074;-44
2023/05/19 05:58:44;;;;;;;0.20;0.20;;;;;;;21.37;43.47;102122.44;5136529;27;20074;-44
2023/05/19 06:01:10;;;;;;;0.20;0.20;;;;;;;21.36;43.26;102126.31;5107285;27;20047;-43
2023/05/19 06:03:38;;;;;;;0.20;0.20;;;;;;;21.36;43.24;102127.16;5117392;28;20089;-42
2023/05/19 06:06:04;;;;;;;0.20;0.20;;;;;;;21.35;43.40;102121.91;5098250;28;20423;-44
2023/05/19 06:08:30;;;;;;;0.10;0.10;;;;;;;21.35;43.29;102119.94;5116377;28;20121;-45
2023/05/19 06:10:57;;;;;;;0.20;0.20;;;;;;;21.35;43.29;102119.94;5116446;27;20186;-42
2023/05/19 06:13:24;;;;;;;0.20;0.20;;;;;;;21.34;43.34;102118.28;5116169;28;20415;-46
2023/05/19 06:15:50;;;;;;;0.20;0.20;;;;;;;21.35;43.22;102119.13;5098887;28;20079;-42
2023/05/19 06:18:16;;;;;;;0.20;0.20;;;;;;;21.37;43.36;102120.50;5103376;27;20137;-43
2023/05/19 06:20:42;;;;;;;0.20;0.20;;;;;;;21.36;43.20;102113.31;5125406;27;20085;-45
2023/05/19 06:23:08;;;;;;;0.20;0.20;;;;;;;21.36;43.36;102115.25;5116035;28;20219;-43
2023/05/19 06:25:34;;;;;;;0.20;0.20;;;;;;;21.38;43.22;102111.13;5116820;28;20078;-44
2023/05/19 06:27:59;;;;;;;0.20;0.20;;;;;;;21.38;43.35;102115.81;5116164;27;20051;-43
2023/05/19 06:30:25;;;;;;;0.20;0.20;;;;;;;21.36;43.17;102115.25;5115586;27;20064;-46
2023/05/19 06:32:51;;;;;;;0.10;0.10;;;;;;;21.35;43.29;102108.03;5116033;28;20645;-43
2023/05/19 06:35:17;;;;;;;0.17;0.17;;;;;;;21.36;43.33;102115.25;5116258;28;20050;-45
2023/05/19 06:37:42;;;;;;;0.20;0.20;;;;;;;21.38;43.27;102107.50;5124700;27;20043;-44
2023/05/19 06:40:09;;;;;;;0.20;0.20;;;;;;;21.37;43.45;102111.38;5129274;27;20073;-42
2023/05/19 06:42:34;;;;;;;0.10;0.10;;;;;;;21.34;43.47;102115.53;5115861;28;20035;-44
2023/05/19 06:45:00;;;;;;;0.10;0.10;;;;;;;21.37;43.23;102117.75;5115290;27;20116;-42
2023/05/19 06:47:26;;;;;;;0.20;0.20;;;;;;;21.34;43.38;102118.28;5115794;28;20134;-43
2023/05/19 06:49:55;;;;;;;0.20;0.20;;;;;;;21.36;43.25;102116.06;5115345;27;20047;-46
2023/05/19 06:52:21;;;;;;;0.10;0.10;;;;;;;21.37;43.24;102116.91;5115656;28;20420;-44
2023/05/19 06:54:48;;;;;;;0.10;0.10;;;;;;;21.37;43.20;102123.28;5080882;28;20639;-44
2023/05/19 06:57:13;;;;;;;0.20;0.20;;;;;;;21.34;43.48;102118.28;5132773;27;20042;-43
2023/05/19 06:59:42;;;;;;;0.20;0.20;;;;;;;21.35;43.39;102116.34;5135997;27;20113;-43
2023/05/19 07:02:07;;;;;;;;;;;;;;;21.37;43.30;102120.50;5137067;27;20056;-44
2023/05/19 07:04:34;;;;;;;0.20;0.20;;;;;;;21.37;43.31;102120.50;5136400;27;20342;-44
2023/05/19 07:06:59;;;;;;;0.17;0.17;;;;;;;21.36;43.14;102121.63;5136097;27;20245;-43
2023/05/19 07:09:25;;;;;;;0.20;0.20;;;;;;;21.36;43.21;102126.31;5135976;27;20047;-44
2023/05/19 07:11:50;;;;;;;0.20;0.20;;;;;;;21.36;43.26;102112.47;5136213;27;20407;-42
2023/05/19 07:14:16;;;;;;;0.20;0.20;;;;;;;21.37;43.20;102122.44;5135936;27;20043;-44
2023/05/19 07:16:42;;;;;;;0.20;0.20;;;;;;;21.38;43.21;102122.19;5136164;27;20548;-42
2023/05/19 07:19:08;;;;;;;0.20;0.20;;;;;;;21.38;43.03;102121.38;5141879;27;20050;-43
2023/05/19 07:21:34;;;;;;;0.20;0.20;;;;;;;21.37;43.29;102122.44;5135834;27;20046;-44
2023/05/19 07:24:00;;;;;;;0.20;0.20;;;;;;;21.37;43.40;102116.91;5135471;27;20055;-45
2023/05/19 07:26:26;;;;;;;0.20;0.20;;;;;;;21.37;43.31;102111.38;5136155;27;20424;-47
2023/05/19 07:28:51;;;;;;;0.20;0.20;;;;;;;21.36;43.27;102110.53;5136345;27;20499;-44
2023/05/19 07:31:17;;;;;;;0.20;0.20;;;;;;;21.39;43.13;102111.94;5316907;22;20506;-40
2023/05/19 07:33:43;;;;;;;0.20;0.20;;;;;;;21.35;43.45;102108.03;5095173;28;20470;-37
2023/05/19 07:36:09;;;;;;;0.20;0.20;;;;;;;21.36;43.23;102106.94;5094963;28;20413;-37
2023/05/19 07:38:34;;;;;;;0.20;0.20;;;;;;;21.37;43.28;102111.38;5095034;28;20047;-37
2023/05/19 07:41:01;;;;;;;0.20;0.20;;;;;;;21.35;43.22;102102.50;5079199;28;20614;-37
2023/05/19 07:43:27;;;;;;;0.20;0.20;;;;;;;21.36;43.23;102107.75;5056110;28;20383;-37
2023/05/19 07:45:54;;;;;;;0.10;0.10;;;;;;;21.35;43.26;102096.94;5074412;28;20168;-37
2023/05/19 07:48:21;;;;;;;0.10;0.10;;;;;;;21.37;43.30;102103.88;5075046;28;20085;-37
2023/05/19 07:50:48;;;;;;;0.20;0.20;;;;;;;21.38;43.23;102099.19;5074328;28;20052;-37
2023/05/19 07:53:14;;;;;;;0.20;0.20;;;;;;;21.37;43.38;102087.25;5072998;28;20553;-37
2023/05/19 07:55:39;;;;;;;0.20;0.20;;;;;;;21.36;43.34;102102.22;5075632;28;20640;-37
2023/05/19 07:58:05;;;;;;;0.20;0.20;;;;;;;21.39;43.15;102100.88;5085606;28;20048;-37
2023/05/19 08:00:31;;;;;;;0.20;0.20;;;;;;;21.39;43.11;102098.09;5078170;28;20109;-37
2023/05/19 08:02:57;;;;;;;0.20;0.20;;;;;;;21.36;43.18;102093.06;5077767;28;20585;-37
2023/05/19 08:05:24;;;;;;;0.20;0.20;;;;;;;21.36;43.20;102085.59;5077616;28;20040;-37
2023/05/19 08:07:50;;;;;;;0.20;0.20;;;;;;;21.38;43.26;102097.25;5075972;28;20078;-37
2023/05/19 08:10:16;;;;;;;0.20;0.20;;;;;;;21.39;43.21;102081.47;5077814;28;20052;-37
2023/05/19 08:12:42;;;;;;;0.20;0.20;;;;;;;21.38;43.34;102083.41;5077545;28;20055;-37
2023/05/19 08:15:10;;;;;;;0.10;0.10;;;;;;;21.38;43.12;102086.19;5076482;28;20058;-37
2023/05/19 08:17:36;;;;;;;0.10;0.10;;;;;;;21.40;43.10;102074.81;5079754;28;20101;-37
2023/05/19 08:20:05;;;;;;;0.20;0.20;;;;;;;21.38;43.26;102077.88;5097911;28;20080;-37
2023/05/19 08:22:31;;;;;;;0.20;0.20;;;;;;;21.39;43.26;102084.22;5098106;28;20051;-37
2023/05/19 08:24:57;;;;;;;0.20;0.20;;;;;;;21.39;43.15;102075.91;5097589;28;20101;-37
2023/05/19 08:27:22;;;;;;;0.20;0.20;;;;;;;21.41;43.22;102070.94;5098071;28;20050;-37
2023/05/19 08:29:48;;;;;;;0.20;0.20;;;;;;;21.40;43.20;102074.81;5097873;28;20090;-37
2023/05/19 08:32:14;;;;;;;0.20;0.20;;;;;;;21.39;43.02;102068.44;5098079;28;20052;-37
2023/05/19 08:34:40;;;;;;;0.20;0.20;;;;;;;21.39;43.06;102068.44;5097995;28;20036;-37
2023/05/19 08:37:06;;;;;;;0.20;0.20;;;;;;;21.39;43.14;102064.84;5079009;28;20413;-37
2023/05/19 08:39:33;;;;;;;0.20;0.20;;;;;;;21.40;43.17;102064.56;5097117;28;20260;-37
2023/05/19 08:41:58;;;;;;;0.20;0.20;;;;;;;21.38;43.17;102060.41;5045659;28;20082;-37
2023/05/19 08:44:25;;;;;;;0.20;0.20;;;;;;;21.40;43.06;102055.41;5076761;28;20048;-37
2023/05/19 08:46:53;;;;;;;0.10;0.10;;;;;;;21.40;43.19;102060.97;5077075;28;20138;-37
2023/05/19 08:49:22;;;;;;;;;;;;;;;21.40;43.11;102053.47;5042825;28;20364;-37
2023/05/19 08:52:30;;;;;;;0.20;0.20;;;;;;;21.41;43.04;102052.38;5079824;28;19927;-37
2023/05/19 08:55:08;;;;;;;0.20;0.20;;;;;;;21.39;43.11;102056.53;5070625;28;20055;-37
2023/05/19 08:57:35;;;;;;;0.10;0.10;;;;;;;21.38;43.17;102052.91;5097151;28;20446;-37
2023/05/19 09:00:03;;;;;;;0.20;0.20;;;;;;;21.39;43.09;102049.03;5069342;28;20122;-37
2023/05/19 09:02:29;;;;;;;0.20;0.20;;;;;;;21.37;43.28;102047.63;5059583;28;20044;-37
2023/05/19 09:04:56;;;;;;;0.20;0.20;;;;;;;21.40;42.93;102045.16;5077265;28;20536;-38
2023/05/19 09:07:24;;;;;;;0.10;0.10;;;;;;;21.40;43.09;102047.09;5076121;28;20122;-37
2023/05/19 09:09:50;;;;;;;0.10;0.10;;;;;;;21.39;42.93;102037.97;5079666;28;20043;-37
2023/05/19 09:12:15;;;;;;;0.20;0.20;;;;;;;21.39;43.14;102043.50;5068938;28;20063;-38
2023/05/19 09:14:41;;;;;;;0.20;0.20;;;;;;;21.39;43.12;102035.19;5038923;28;20147;-37
2023/05/19 09:17:07;;;;;;;0.20;0.20;;;;;;;21.40;43.08;102030.47;5071454;28;20058;-37
2023/05/19 09:19:32;;;;;;;0.20;0.20;;;;;;;21.38;43.21;102036.28;5078445;28;20051;-37
2023/05/19 09:22:00;;;;;;;0.20;0.20;;;;;;;21.39;43.12;102035.19;5097479;28;20043;-37
2023/05/19 09:24:25;;;;;;;0.20;0.20;;;;;;;21.38;43.08;102033.53;5097594;28;20264;-37
2023/05/19 09:26:55;;;;;;;0.20;0.20;;;;;;;21.37;43.24;102028.22;5097291;28;20280;-38
2023/05/19 09:29:24;;;;;;;0.20;0.20;;;;;;;21.40;43.11;102036.03;5064985;28;20070;-37
2023/05/19 09:31:52;;;;;;;0.20;0.20;;;;;;;21.40;43.09;102033.25;5078827;28;20048;-37
2023/05/19 09:34:21;;;;;;;0.20;0.20;;;;;;;21.37;43.24;102017.97;5079270;28;20047;-37
2023/05/19 09:36:48;;;;;;;0.20;0.20;;;;;;;21.39;43.13;102032.41;5096848;28;20051;-37
2023/05/19 09:39:15;;;;;;;0.20;0.20;;;;;;;21.39;42.97;102020.50;5097051;28;20048;-37
2023/05/19 09:41:41;;;;;;;0.20;0.20;;;;;;;21.40;43.11;102019.38;5096196;28;20483;-38
2023/05/19 09:44:12;;;;;;;0.10;0.10;;;;;;;21.38;42.95;102018.84;5059187;28;20047;-37
2023/05/19 09:46:37;;;;;;;0.20;0.20;;;;;;;21.40;42.96;102011.91;5070913;28;20032;-38
2023/05/19 09:49:08;;;;;;;0.20;0.20;;;;;;;21.39;42.94;102010.25;5064093;28;20036;-37
2023/05/19 09:51:36;;;;;;;0.20;0.20;;;;;;;21.39;43.05;102007.47;5061843;28;20056;-37
2023/05/19 09:54:03;;;;;;;0.10;0.10;;;;;;;21.40;43.04;102005.53;5074873;28;20044;-38
2023/05/19 09:56:38;;;;;;;0.20;0.20;;;;;;;21.40;43.00;102000.81;5058298;28;20044;-37
2023/05/19 09:59:03;;;;;;;0.20;0.20;;;;;;;21.39;43.04;102004.72;5058100;28;20047;-37
2023/05/19 10:01:32;;;;;;;0.20;0.20;;;;;;;21.39;43.00;101999.16;5066676;28;20044;-37
2023/05/19 10:03:58;;;;;;;0.20;0.20;;;;;;;21.39;42.96;101995.56;5058250;28;20044;-37
2023/05/19 10:06:25;;;;;;;0.20;0.20;;;;;;;21.39;42.97;101993.63;5074962;28;20513;-37
2023/05/19 10:08:51;;;;;;;0.13;0.13;;;;;;;21.40;43.00;102000.00;5071579;28;20081;-37
2023/05/19 10:11:17;;;;;;;0.20;0.20;;;;;;;21.39;42.96;102001.94;5064910;28;20059;-37
2023/05/19 10:13:44;;;;;;;0.20;0.20;;;;;;;21.38;42.81;102000.28;5076126;28;20082;-38
2023/05/19 10:16:11;;;;;;;0.20;0.20;;;;;;;21.38;43.07;101994.72;5063498;28;20044;-37
2023/05/19 10:18:36;;;;;;;0.20;0.20;;;;;;;21.38;43.12;101994.72;5048197;28;20040;-37
2023/05/19 10:21:06;;;;;;;0.20;0.20;;;;;;;21.38;43.18;102003.03;5062759;28;20392;-37
2023/05/19 10:23:33;;;;;;;0.20;0.20;;;;;;;21.39;43.09;101992.78;5038685;28;20076;-37
2023/05/19 10:26:00;;;;;;;0.20;0.20;;;;;;;21.38;43.06;101997.50;5058187;28;20537;-37
2023/05/19 10:28:32;;;;;;;0.20;0.20;;;;;;;21.37;43.18;101995.81;5072897;28;20056;-37
2023/05/19 10:30:59;;;;;;;0.10;0.10;;;;;;;21.40;43.13;102000.00;5082372;28;20093;-37
2023/05/19 10:33:51;;;;;;;0.20;0.20;;;;;;;21.38;43.02;101994.72;5096099;28;20074;-38
2023/05/19 10:36:41;;;;;;;0.20;0.20;;;;;;;21.39;43.06;101985.31;5081203;28;20075;-37
2023/05/19 10:39:16;;;;;;;0.20;0.20;;;;;;;21.39;43.13;101990.03;5081460;28;20534;-38
2023/05/19 10:42:05;;;;;;;0.20;0.20;;;;;;;21.38;43.08;101980.03;5083535;28;20086;-37
2023/05/19 10:44:44;;;;;;;0.20;0.20;;;;;;;21.39;43.11;101987.25;5060617;28;20096;-37
2023/05/19 10:47:10;;;;;;;0.20;0.20;;;;;;;21.40;42.98;101980.59;5076572;28;20043;-37
2023/05/19 10:49:36;;;;;;;0.20;0.20;;;;;;;21.38;43.03;101991.13;5078315;28;20273;-37
2023/05/19 10:52:03;;;;;;;0.20;0.20;;;;;;;21.38;42.79;101983.66;5096392;28;20059;-38
2023/05/19 10:54:39;;;;;;;0.20;0.20;;;;;;;21.40;43.00;101986.13;5096153;28;20517;-38
2023/05/19 10:57:05;;;;;;;0.20;0.20;;;;;;;21.38;42.97;101978.09;5085100;28;20253;-38
2023/05/19 10:59:34;;;;;;;0.20;0.20;;;;;;;21.38;42.87;101986.41;5058509;28;20040;-37
2023/05/19 11:02:03;;;;;;;0.10;0.10;;;;;;;21.40;42.95;101983.38;5036386;28;20228;-37
2023/05/19 11:04:46;;;;;;;0.20;0.20;;;;;;;21.40;42.84;101973.09;5072489;28;20179;-38
2023/05/19 11:07:18;;;;;;;0.20;0.20;;;;;;;21.42;42.95;101978.41;5075083;28;20113;-37
2023/05/19 11:09:48;;;;;;;0.20;0.20;;;;;;;21.40;42.88;101969.50;5060779;28;20438;-37
2023/05/19 11:12:19;;;;;;;0.20;0.20;;;;;;;21.42;42.95;101967.31;5065388;28;20076;-37
2023/05/19 11:14:45;;;;;;;0.20;0.20;;;;;;;21.40;42.80;101962.03;5065414;28;20040;-37
2023/05/19 11:17:14;;;;;;;0.20;0.20;;;;;;;21.42;43.04;101964.53;5065781;28;20074;-37
2023/05/19 11:19:51;;;;;;;0.20;0.20;;;;;;;21.38;43.03;101972.56;5060218;28;20051;-37
2023/05/19 11:22:16;;;;;;;0.20;0.20;;;;;;;21.39;43.00;101965.06;5066781;28;20120;-38
2023/05/19 11:24:44;;;;;;;0.20;0.20;;;;;;;21.39;42.98;101965.91;5055285;28;20047;-37
2023/05/19 11:27:32;;;;;;;0.10;0.10;;;;;;;21.41;42.99;101980.31;5052875;28;20075;-37
2023/05/19 11:30:05;;;;;;;0.20;0.20;;;;;;;21.40;43.01;101962.03;5065469;28;20048;-37